createdAt,value
2022-12-16T00:01:55.153Z,18.90
2022-12-16T00:04:27.807Z,20.77
2022-12-16T00:06:56.532Z,21.77
2022-12-16T00:09:32.319Z,21.90
2022-12-16T00:12:00.325Z,21.30
2022-12-16T00:14:29.145Z,21.93
2022-12-16T00:16:59.698Z,20.00
2022-12-16T00:19:29.245Z,21.50
2022-12-16T00:21:57.353Z,21.50
2022-12-16T00:24:27.828Z,19.93
2022-12-16T00:27:06.863Z,22.80
2022-12-16T00:29:40.152Z,21.13
2022-12-16T00:32:09.095Z,19.33
2022-12-16T00:34:41.490Z,20.77
2022-12-16T00:37:11.094Z,22.07
2022-12-16T00:39:40.786Z,22.13
2022-12-16T00:42:08.970Z,22.60
2022-12-16T00:44:42.346Z,21.77
2022-12-16T00:47:10.727Z,20.43
2022-12-16T00:49:43.654Z,20.17
2022-12-16T00:52:12.380Z,21.53
2022-12-16T00:54:40.832Z,21.07
2022-12-16T00:57:09.368Z,21.17
2022-12-16T00:59:38.135Z,22.60
2022-12-16T01:02:11.798Z,21.63
2022-12-16T01:04:40.059Z,21.90
2022-12-16T01:07:10.418Z,22.30
2022-12-16T01:09:40.081Z,21.40
2022-12-16T01:12:10.988Z,20.77
2022-12-16T01:14:39.692Z,20.57
2022-12-16T01:17:08.201Z,19.13
2022-12-16T01:19:53.650Z,20.97
2022-12-16T01:22:32.149Z,19.13
2022-12-16T01:25:01.200Z,21.77
2022-12-16T01:27:29.745Z,22.37
2022-12-16T01:29:57.819Z,21.20
2022-12-16T01:32:26.326Z,22.40
2022-12-16T01:34:55.935Z,21.40
2022-12-16T01:37:24.909Z,22.47
2022-12-16T01:39:54.382Z,21.47
2022-12-16T01:45:36.745Z,23.03
2022-12-16T01:48:13.392Z,22.40
2022-12-16T01:50:41.880Z,22.40
2022-12-16T01:53:12.753Z,20.90
2022-12-16T01:58:07.239Z,19.20
2022-12-16T02:00:38.914Z,16.07
2022-12-16T02:03:08.439Z,21.30
2022-12-16T02:05:42.706Z,20.03
2022-12-16T02:08:24.153Z,17.37
2022-12-16T02:11:21.658Z,20.17
2022-12-16T02:14:22.186Z,21.67
2022-12-16T02:16:58.106Z,20.87
2022-12-16T02:19:51.255Z,21.57
2022-12-16T02:22:34.924Z,20.90
2022-12-16T02:25:33.824Z,22.03
2022-12-16T02:28:08.207Z,20.83
2022-12-16T02:31:05.283Z,20.40
2022-12-16T02:33:51.894Z,21.17
2022-12-16T02:36:43.238Z,21.33
2022-12-16T02:39:26.443Z,22.23
2022-12-16T02:42:01.561Z,19.60
2022-12-16T02:44:42.372Z,18.23
2022-12-16T02:47:11.854Z,21.70
2022-12-16T02:50:01.540Z,19.40
2022-12-16T02:52:32.098Z,20.67
2022-12-16T02:55:04.058Z,21.20
2022-12-16T02:57:51.739Z,19.27
2022-12-16T03:00:22.205Z,18.33
2022-12-16T03:03:00.763Z,17.70
2022-12-16T03:05:34.535Z,19.50
2022-12-16T03:08:06.949Z,20.37
2022-12-16T03:10:39.740Z,18.33
2022-12-16T03:13:15.889Z,20.43
2022-12-16T03:15:45.917Z,20.97
2022-12-16T03:18:23.272Z,19.93
2022-12-16T03:21:00.051Z,20.40
2022-12-16T03:23:32.905Z,20.27
2022-12-16T03:26:10.442Z,18.57
2022-12-16T03:29:00.857Z,19.47
2022-12-16T03:34:32.518Z,19.13
2022-12-16T03:37:11.121Z,18.37
2022-12-16T03:39:42.153Z,17.50
2022-12-16T03:42:11.633Z,17.10
2022-12-16T03:44:42.977Z,17.60
2022-12-16T03:47:11.418Z,17.80
2022-12-16T03:49:41.424Z,18.10
2022-12-16T03:52:10.117Z,17.70
2022-12-16T03:54:38.359Z,17.43
2022-12-16T03:57:11.766Z,17.57
2022-12-16T03:59:52.265Z,17.80
2022-12-16T04:02:40.868Z,16.93
2022-12-16T04:05:12.842Z,16.13
2022-12-16T04:07:41.723Z,17.73
2022-12-16T04:10:10.871Z,17.13
2022-12-16T04:12:56.918Z,17.67
2022-12-16T04:15:42.886Z,18.00
2022-12-16T04:18:36.952Z,16.57
2022-12-16T04:24:27.109Z,16.83
2022-12-16T04:27:15.710Z,16.67
2022-12-16T04:29:58.358Z,17.37
2022-12-16T04:32:27.252Z,17.37
2022-12-16T04:34:55.579Z,15.83
2022-12-16T04:37:42.944Z,16.70
2022-12-16T04:40:29.751Z,17.30
2022-12-16T04:43:15.764Z,15.70
2022-12-16T04:46:05.503Z,15.40
2022-12-16T04:49:01.056Z,15.70
2022-12-16T04:51:51.442Z,16.87
2022-12-16T04:54:42.857Z,16.57
2022-12-16T04:57:42.125Z,16.80
2022-12-16T05:00:28.636Z,16.07
2022-12-16T05:03:17.364Z,14.00
2022-12-16T05:06:03.219Z,16.57
2022-12-16T05:08:51.873Z,14.10
2022-12-16T05:11:42.048Z,16.07
2022-12-16T05:14:28.064Z,15.60
2022-12-16T05:17:13.747Z,16.00
2022-12-16T05:19:59.486Z,15.47
2022-12-16T05:22:47.427Z,14.23
2022-12-16T05:25:33.533Z,16.17
2022-12-16T05:28:23.719Z,14.67
2022-12-16T05:31:09.733Z,13.87
2022-12-16T05:33:58.250Z,14.10
2022-12-16T05:36:43.944Z,14.93
2022-12-16T05:39:31.405Z,15.07
2022-12-16T05:42:18.524Z,15.07
2022-12-16T05:45:08.106Z,14.50
2022-12-16T05:48:05.690Z,13.90
2022-12-16T05:50:51.051Z,14.57
2022-12-16T05:53:36.556Z,13.87
2022-12-16T05:56:25.983Z,13.17
2022-12-16T05:59:11.736Z,15.10
2022-12-16T06:02:01.551Z,13.03
2022-12-16T06:04:51.066Z,12.17
2022-12-16T06:07:36.746Z,12.77
2022-12-16T06:10:24.674Z,12.30
2022-12-16T06:13:12.516Z,15.40
2022-12-16T06:15:57.964Z,13.37
2022-12-16T06:18:55.373Z,12.47
2022-12-16T06:21:48.427Z,12.00
2022-12-16T06:24:35.164Z,12.63
2022-12-16T06:27:21.617Z,12.13
2022-12-16T06:30:07.892Z,11.80
2022-12-16T06:32:54.097Z,12.23
2022-12-16T06:35:41.154Z,11.80
2022-12-16T06:38:26.819Z,12.07
2022-12-16T06:41:12.985Z,12.47
2022-12-16T06:44:01.413Z,11.00
2022-12-16T06:46:52.390Z,15.10
2022-12-16T06:49:41.139Z,11.73
2022-12-16T06:52:30.267Z,13.50
2022-12-16T06:55:19.357Z,13.80
2022-12-16T06:58:10.101Z,12.67
2022-12-16T07:01:01.385Z,11.37
2022-12-16T07:03:53.594Z,12.63
2022-12-16T07:06:55.810Z,11.67
2022-12-16T07:09:42.845Z,11.20
2022-12-16T07:12:28.624Z,12.10
2022-12-16T07:15:25.387Z,11.07
2022-12-16T07:18:13.939Z,11.47
2022-12-16T07:20:59.776Z,16.88
2022-12-16T07:23:45.865Z,15.10
2022-12-16T07:26:33.079Z,13.53
2022-12-16T07:29:22.257Z,12.63
2022-12-16T07:32:12.886Z,11.70
2022-12-16T07:35:01.402Z,12.43
2022-12-16T07:37:58.215Z,11.83
2022-12-16T07:40:56.956Z,11.17
2022-12-16T07:43:43.533Z,9.77
2022-12-16T07:46:28.860Z,8.90
2022-12-16T07:49:16.431Z,11.53
2022-12-16T07:52:03.965Z,11.30
2022-12-16T07:54:52.106Z,11.80
2022-12-16T07:57:52.904Z,11.27
2022-12-16T08:00:42.341Z,14.73
2022-12-16T08:03:30.568Z,13.53
2022-12-16T08:06:19.197Z,14.67
2022-12-16T08:09:19.686Z,11.80
2022-12-16T08:12:06.269Z,13.90
2022-12-16T08:14:51.717Z,14.00
2022-12-16T08:17:50.259Z,11.80
2022-12-16T08:20:43.601Z,13.73
2022-12-16T08:23:30.248Z,9.80
2022-12-16T08:26:19.024Z,12.17
2022-12-16T08:29:43.853Z,10.07
2022-12-16T08:32:23.365Z,10.53
2022-12-16T08:39:30.262Z,9.80
2022-12-16T08:42:17.263Z,11.37
2022-12-16T08:45:03.579Z,10.47
2022-12-16T08:47:52.730Z,10.47
2022-12-16T08:50:43.215Z,10.03
2022-12-16T08:53:28.837Z,10.30
2022-12-16T08:56:14.622Z,9.67
2022-12-16T08:59:01.582Z,10.67
2022-12-16T09:02:07.085Z,8.80
2022-12-16T09:08:03.370Z,7.80
2022-12-16T09:10:52.106Z,9.10
2022-12-16T09:13:43.450Z,9.53
2022-12-16T09:16:34.648Z,7.57
2022-12-16T09:19:37.606Z,8.00
2022-12-16T09:22:23.291Z,6.13
2022-12-16T09:25:14.795Z,6.00
2022-12-16T09:28:00.960Z,5.00
2022-12-16T09:30:50.572Z,4.63
2022-12-16T09:33:37.986Z,4.90
2022-12-16T09:36:24.232Z,5.27
2022-12-16T09:39:12.638Z,4.80
2022-12-16T09:42:03.996Z,4.40
2022-12-16T09:45:02.325Z,4.40
2022-12-16T09:47:56.547Z,5.03
2022-12-16T09:50:45.245Z,3.83
2022-12-16T09:53:33.826Z,4.30
2022-12-16T09:56:22.171Z,3.87
2022-12-16T09:59:16.322Z,4.10
2022-12-16T10:02:03.000Z,4.27
2022-12-16T10:04:51.017Z,3.47
2022-12-16T10:07:42.629Z,3.90
2022-12-16T10:10:38.517Z,3.77
2022-12-16T10:13:37.425Z,3.90
2022-12-16T10:16:42.528Z,4.00
2022-12-16T10:19:38.521Z,3.97
2022-12-16T10:22:50.737Z,3.20
2022-12-16T10:25:54.089Z,3.67
2022-12-16T10:29:01.622Z,3.50
2022-12-16T10:31:47.754Z,3.37
2022-12-16T10:38:02.236Z,4.07
2022-12-16T10:40:55.472Z,3.90
2022-12-16T10:43:56.194Z,3.57
2022-12-16T10:46:51.690Z,3.60
2022-12-16T10:49:38.485Z,3.63
2022-12-16T10:52:36.798Z,3.53
2022-12-16T10:55:42.526Z,4.70
2022-12-16T10:58:52.384Z,4.50
2022-12-16T11:04:56.746Z,4.60
2022-12-16T11:08:11.701Z,4.83
2022-12-16T11:11:00.810Z,5.47
2022-12-16T11:13:48.123Z,6.50
2022-12-16T11:16:40.712Z,6.43
2022-12-16T11:19:53.804Z,6.10
2022-12-16T11:22:41.764Z,7.37
2022-12-16T11:25:34.098Z,7.37
2022-12-16T11:28:32.917Z,9.50
2022-12-16T11:31:31.652Z,8.27
2022-12-16T11:34:23.244Z,9.50
2022-12-16T11:37:20.997Z,9.23
2022-12-16T11:40:10.290Z,10.33
2022-12-16T11:43:01.416Z,10.13
2022-12-16T11:45:56.693Z,11.00
2022-12-16T11:48:51.747Z,12.60
2022-12-16T11:52:03.775Z,10.97
2022-12-16T11:55:15.644Z,11.63
2022-12-16T11:58:17.668Z,12.10
2022-12-16T12:01:10.218Z,14.27
2022-12-16T12:04:04.641Z,11.10
2022-12-16T12:07:10.785Z,9.37
2022-12-16T12:10:08.377Z,10.27
2022-12-16T12:13:02.389Z,10.50
2022-12-16T12:15:56.061Z,10.70
2022-12-16T12:18:57.087Z,10.80
2022-12-16T12:21:45.566Z,10.77
2022-12-16T12:24:45.931Z,12.50
2022-12-16T12:27:45.526Z,10.60
2022-12-16T12:30:37.366Z,11.80
2022-12-16T12:33:53.632Z,11.70
2022-12-16T12:36:52.883Z,10.80
2022-12-16T12:39:56.330Z,10.40
2022-12-16T12:42:56.235Z,11.83
2022-12-16T12:46:13.784Z,9.60
2022-12-16T12:49:08.238Z,10.70
2022-12-16T12:52:05.407Z,11.93
2022-12-16T12:55:02.813Z,11.30
2022-12-16T12:57:52.507Z,10.80
2022-12-16T13:00:41.321Z,12.03
2022-12-16T13:03:42.818Z,11.30
2022-12-16T13:06:38.919Z,12.33
2022-12-16T13:09:44.915Z,11.47
2022-12-16T13:15:57.347Z,13.00
2022-12-16T13:18:46.359Z,12.67
2022-12-16T13:22:05.776Z,13.07
2022-12-16T13:25:06.538Z,11.93
2022-12-16T13:28:21.041Z,13.10
2022-12-16T13:31:25.546Z,13.00
2022-12-16T13:34:13.663Z,13.37
2022-12-16T13:37:00.461Z,12.50
2022-12-16T13:39:53.572Z,13.00
2022-12-16T13:43:10.420Z,13.67
2022-12-16T13:45:59.103Z,13.07
2022-12-16T13:48:52.264Z,13.43
2022-12-16T13:52:22.001Z,12.77
2022-12-16T13:55:30.113Z,14.37
2022-12-16T13:58:26.655Z,13.53
2022-12-16T14:01:25.626Z,13.53
2022-12-16T14:04:26.724Z,14.73
2022-12-16T14:07:16.657Z,13.13
2022-12-16T14:10:07.745Z,13.63
2022-12-16T14:13:25.292Z,13.93
2022-12-16T14:16:20.165Z,14.90
2022-12-16T14:19:22.052Z,13.63
2022-12-16T14:22:17.985Z,15.13
2022-12-16T14:25:06.259Z,14.07
2022-12-16T14:27:54.985Z,13.63
2022-12-16T14:30:55.356Z,14.13
2022-12-16T14:33:50.401Z,14.13
2022-12-16T14:36:57.190Z,13.93
2022-12-16T14:39:51.175Z,13.93
2022-12-16T14:42:45.457Z,14.90
2022-12-16T14:45:55.397Z,14.33
2022-12-16T14:48:55.023Z,14.43
2022-12-16T14:51:45.749Z,15.10
2022-12-16T14:54:53.509Z,15.60
2022-12-16T14:57:45.589Z,15.43
2022-12-16T15:00:35.104Z,15.20
2022-12-16T15:03:29.899Z,16.10
2022-12-16T15:06:23.359Z,15.20
2022-12-16T15:09:15.123Z,15.20
2022-12-16T15:12:02.868Z,15.40
2022-12-16T15:14:50.904Z,16.20
2022-12-16T15:17:41.603Z,15.17
2022-12-16T15:20:35.957Z,15.90
2022-12-16T15:23:29.275Z,15.23
2022-12-16T15:26:24.787Z,16.57
2022-12-16T15:29:12.696Z,14.63
2022-12-16T15:32:03.204Z,16.73
2022-12-16T15:35:08.108Z,16.30
2022-12-16T15:38:03.822Z,16.63
2022-12-16T15:41:10.557Z,16.00
2022-12-16T15:43:58.548Z,15.93
2022-12-16T15:46:50.906Z,15.63
2022-12-16T15:49:53.473Z,15.70
2022-12-16T15:52:54.256Z,15.07
2022-12-16T15:55:50.199Z,14.67
2022-12-16T15:58:49.197Z,14.53
2022-12-16T16:01:44.674Z,14.87
2022-12-16T16:04:36.983Z,13.97
2022-12-16T16:07:23.178Z,14.53
2022-12-16T16:10:24.931Z,14.77
2022-12-16T16:13:11.011Z,16.23
2022-12-16T16:15:58.542Z,16.67
2022-12-16T16:18:53.555Z,17.80
2022-12-16T16:21:39.458Z,17.33
2022-12-16T16:24:25.765Z,23.13
2022-12-16T16:27:15.369Z,19.80
2022-12-16T16:30:15.126Z,23.10
2022-12-16T16:33:10.935Z,20.73
2022-12-16T16:36:01.641Z,19.17
2022-12-16T16:38:51.751Z,18.47
2022-12-16T16:41:41.900Z,19.20
2022-12-16T16:44:35.091Z,17.33
2022-12-16T16:47:23.440Z,19.37
2022-12-16T16:50:16.069Z,17.37
2022-12-16T16:53:10.479Z,28.20
2022-12-16T16:55:55.565Z,20.17
2022-12-16T16:58:54.108Z,17.20
2022-12-16T17:01:42.464Z,17.07
2022-12-16T17:04:31.635Z,17.53
2022-12-16T17:07:17.583Z,18.97
2022-12-16T17:10:05.572Z,18.80
2022-12-16T17:12:51.521Z,20.07
2022-12-16T17:15:41.148Z,20.27
2022-12-16T17:18:29.692Z,18.73
2022-12-16T17:21:16.979Z,20.23
2022-12-16T17:24:05.480Z,19.80
2022-12-16T17:26:51.442Z,20.27
2022-12-16T17:29:42.845Z,22.23
2022-12-16T17:32:29.536Z,25.50
2022-12-16T17:35:16.359Z,22.23
2022-12-16T17:38:03.402Z,21.37
2022-12-16T17:40:57.010Z,21.93
2022-12-16T17:43:45.690Z,20.60
2022-12-16T17:46:31.511Z,19.40
2022-12-16T17:49:15.733Z,19.80
2022-12-16T17:52:08.079Z,18.93
2022-12-16T17:54:56.029Z,20.77
2022-12-16T17:57:42.344Z,19.47
2022-12-16T18:00:29.123Z,19.77
2022-12-16T18:03:15.011Z,18.53
2022-12-16T18:06:02.572Z,18.53
2022-12-16T18:08:53.341Z,19.30
2022-12-16T18:11:42.731Z,18.43
2022-12-16T18:14:31.446Z,19.30
2022-12-16T18:17:22.637Z,22.27
2022-12-16T18:20:15.989Z,20.73
2022-12-16T18:23:01.606Z,21.23
2022-12-16T18:25:47.763Z,21.63
2022-12-16T18:28:40.479Z,20.07
2022-12-16T18:31:35.388Z,19.77
2022-12-16T18:34:38.381Z,20.57
2022-12-16T18:37:30.455Z,22.50
2022-12-16T18:43:30.795Z,20.40
2022-12-16T18:46:20.832Z,21.03
2022-12-16T18:49:11.712Z,18.97
2022-12-16T18:51:58.806Z,20.40
2022-12-16T18:55:02.107Z,21.17
2022-12-16T18:58:08.980Z,21.83
2022-12-16T19:01:04.626Z,22.93
2022-12-16T19:03:53.639Z,23.20
2022-12-16T19:06:59.530Z,21.77
2022-12-16T19:09:44.716Z,20.67
2022-12-16T19:12:30.253Z,24.30
2022-12-16T19:15:15.537Z,22.20
2022-12-16T19:18:08.732Z,22.27
2022-12-16T19:20:56.865Z,22.63
2022-12-16T19:23:53.844Z,22.10
2022-12-16T19:26:46.256Z,23.17
2022-12-16T19:29:31.825Z,21.47
2022-12-16T19:32:27.654Z,20.63
2022-12-16T19:35:13.746Z,22.93
2022-12-16T19:38:02.902Z,20.97
2022-12-16T19:40:50.719Z,22.27
2022-12-16T19:43:40.883Z,22.50
2022-12-16T19:46:29.640Z,20.53
2022-12-16T19:49:22.275Z,21.60
2022-12-16T19:52:08.551Z,20.17
2022-12-16T19:55:02.452Z,21.57
2022-12-16T19:57:51.580Z,23.60
2022-12-16T20:00:55.214Z,21.70
2022-12-16T20:03:42.896Z,22.80
2022-12-16T20:06:31.367Z,22.47
2022-12-16T20:09:17.148Z,22.70
2022-12-16T20:12:05.519Z,22.07
2022-12-16T20:14:52.238Z,22.50
2022-12-16T20:17:39.757Z,21.83
2022-12-16T20:20:25.778Z,23.27
2022-12-16T20:23:14.860Z,23.53
2022-12-16T20:26:03.378Z,22.03
2022-12-16T20:28:53.758Z,23.47
2022-12-16T20:31:44.043Z,22.10
2022-12-16T20:34:36.546Z,22.83
2022-12-16T20:37:52.854Z,22.53
2022-12-16T20:40:42.256Z,21.60
2022-12-16T20:43:30.871Z,25.23
2022-12-16T20:46:23.527Z,24.30
2022-12-16T20:49:12.708Z,23.73
2022-12-16T20:51:58.887Z,22.27
2022-12-16T20:54:44.854Z,22.80
2022-12-16T20:57:35.953Z,24.33
2022-12-16T21:00:24.560Z,23.00
2022-12-16T21:03:11.481Z,22.23
2022-12-16T21:06:00.094Z,21.23
2022-12-16T21:08:45.634Z,23.43
2022-12-16T21:11:32.074Z,22.17
2022-12-16T21:14:22.521Z,21.60
2022-12-16T21:17:11.693Z,23.73
2022-12-16T21:20:01.386Z,23.67
2022-12-16T21:22:50.251Z,23.50
2022-12-16T21:25:35.545Z,23.43
2022-12-16T21:28:24.850Z,25.50
2022-12-16T21:31:10.380Z,22.53
2022-12-16T21:33:56.152Z,24.70
2022-12-16T21:36:43.204Z,24.17
2022-12-16T21:39:25.235Z,24.27
2022-12-16T21:42:11.454Z,24.17
2022-12-16T21:44:59.052Z,24.30
2022-12-16T21:47:44.490Z,21.73
2022-12-16T21:50:30.047Z,22.83
2022-12-16T21:53:17.158Z,24.23
2022-12-16T21:56:02.974Z,22.83
2022-12-16T21:58:49.875Z,23.13
2022-12-16T22:01:35.899Z,22.87
2022-12-16T22:07:32.581Z,21.97
2022-12-16T22:10:20.583Z,23.37
2022-12-16T22:13:14.455Z,22.63
2022-12-16T22:16:02.587Z,23.10
2022-12-16T22:18:53.859Z,21.73
2022-12-16T22:21:42.842Z,21.93
2022-12-16T22:24:36.941Z,22.03
2022-12-16T22:27:24.084Z,20.23
2022-12-16T22:30:09.566Z,20.37
2022-12-16T22:32:58.274Z,20.13
2022-12-16T22:35:44.392Z,21.13
2022-12-16T22:38:31.910Z,21.17
2022-12-16T22:41:25.807Z,20.77
2022-12-16T22:44:29.312Z,22.03
2022-12-16T22:47:25.091Z,20.00
2022-12-16T22:50:13.919Z,20.63
2022-12-16T22:53:01.969Z,20.80
2022-12-16T22:55:50.543Z,20.20
2022-12-16T22:58:36.081Z,21.63
2022-12-16T23:01:27.091Z,20.40
2022-12-16T23:04:15.416Z,21.80
2022-12-16T23:07:01.733Z,20.30
2022-12-16T23:09:51.129Z,19.83
2022-12-16T23:12:39.151Z,20.87
2022-12-16T23:15:26.413Z,20.47
2022-12-16T23:18:16.231Z,21.07
2022-12-16T23:21:10.659Z,20.47
2022-12-16T23:23:56.752Z,21.23
2022-12-16T23:28:55.416Z,20.00
2022-12-16T23:31:42.831Z,19.90
2022-12-16T23:34:31.734Z,20.03
2022-12-16T23:37:19.156Z,21.80
2022-12-16T23:40:09.883Z,20.07
2022-12-16T23:42:57.627Z,20.70
2022-12-16T23:45:46.419Z,20.47
2022-12-16T23:48:32.366Z,20.47
2022-12-16T23:51:24.136Z,19.93
2022-12-16T23:57:23.503Z,19.63
